This is the latest recevied weather packets stored in our database for station/object SR2GKG-13. If no packets are shown the sender has not sent any weather packets the latest 1 day(s).
| Time | Temp. | Humidity | Pressure | Rain* | Wind** | Luminosity | Snow |
|---|---|---|---|---|---|---|---|
| 1778048677 | 14.44° C | 73% | 992.7 hPa | - | - | - | - |
| 1778044176 | 11.67° C | 91% | 993.5 hPa | - | - | - | - |
| 1778043276 | 11.11° C | 97% | 993.6 hPa | - | - | - | - |
| 1778042376 | 10.56° C | 99% | 993.6 hPa | - | - | - | - |
| 1778041476 | 10.56° C | 100% | 993.8 hPa | - | - | - | - |
| 1778040576 | 10.56° C | 100% | 993.9 hPa | - | - | - | - |
| 1778039676 | 10° C | 100% | 994.2 hPa | - | - | - | - |
| 1778038776 | 10° C | 100% | 994.5 hPa | - | - | - | - |
| 1778036075 | 9.44° C | 100% | 994.7 hPa | - | - | - | - |
| 1778035175 | 10° C | 100% | 994.9 hPa | - | - | - | - |
| 1778034275 | 10° C | 100% | 994.9 hPa | - | - | - | - |
| 1778033375 | 10° C | 100% | 995.1 hPa | - | - | - | - |
| 1778032475 | 10.56° C | 100% | 995.1 hPa | - | - | - | - |
| 1778031575 | 10.56° C | 100% | 995.2 hPa | - | - | - | - |
| 1778030675 | 10.56° C | 100% | 995.5 hPa | - | - | - | - |
| 1778029775 | 10.56° C | 100% | 995.5 hPa | - | - | - | - |
| 1778028874 | 10.56° C | 100% | 995.7 hPa | - | - | - | - |
| 1778022574 | 10.56° C | 100% | 996.4 hPa | - | - | - | - |
| 1778020774 | 10.56° C | 100% | 996.4 hPa | - | - | - | - |
| 1778019874 | 10.56° C | 100% | 996.4 hPa | - | - | - | - |
| 1778012673 | 11.67° C | 89% | 996.6 hPa | - | - | - | - |
| 1778011773 | 11.67° C | 87% | 996.8 hPa | - | - | - | - |
| 1778010873 | 11.67° C | 85% | 996.7 hPa | - | - | - | - |
| 1778009973 | 12.22° C | 82% | 996.9 hPa | - | - | - | - |
| 1778009073 | 12.22° C | 81% | 996.9 hPa | - | - | - | - |
* Rain since midnight (hover to see other rain measurements)
** Current wind speed in m/s (hover to see current wind gust speed)